Gadsden, Tennessee
Current Conditions -  °F | °C
As of 6:53 PM on Saturday 22 Nov 2014 (Local Time) from KMKL Reporting Station
Broken Clouds Broken Clouds  
Wind Chill: 57°   Ceiling: 8000
Heat Index: 57°   Visibility: 10mi
Dew Point: 37°   Wind: 5mph
Humidity: 47%   Direction: 160°SSE
Pressure: 30.07"   Gusts: NA
Location:  35.78°N, 88.99°W
Report Text: KMKL 230053Z 16004KT 10SM BKN080 14/03 A3007 RMK AO2 SLP181 T01390028
Loading
Personal Weather Stations






























Interactive Weather Map New forecast layout! Learn more

10-Day Weather Forecast

Advertisements
Track Severe Weather on mobile